Terminal Aerodrome Forecast
Issued by NWS Jackson, MS

Home | Current Version | Previous Version | Text Only | Print | Product List | Glossary On
Versions: 1 2 3 4 5 6 7 8 9 10 11 12 13 14 15 16 17 18 19 20 21 22 23 24 25
000
FTUS44 KMEG 271135
TAFTUP
TAF
KTUP 271135Z 2712/2812 20003KT P6SM FEW003 SCT250
      TEMPO 2712/2714 6SM BR OVC003
     FM271400 21005KT P6SM VCSH SCT015 OVC100
      TEMPO 2714/2716 BKN015
     FM271600 21006KT P6SM VCTS BKN035CB OVC100
     FM272300 19004KT P6SM SCT040 BKN150
     FM280300 VRB02KT P6SM FEW250
      TEMPO 2809/2812 3SM BR=

USA.gov is the U.S. government's official web portal to all federal, state and local government web resources and services.